createdAt,value
2023-03-04T00:00:46.497Z,100.00
2023-03-04T00:03:15.706Z,100.00
2023-03-04T00:05:42.454Z,100.00
2023-03-04T00:08:09.102Z,100.00
2023-03-04T00:10:35.812Z,100.00
2023-03-04T00:13:02.387Z,100.00
2023-03-04T00:15:29.084Z,100.00
2023-03-04T00:17:55.861Z,100.00
2023-03-04T00:20:22.461Z,100.00
2023-03-04T00:22:49.174Z,100.00
2023-03-04T00:25:15.902Z,100.00
2023-03-04T00:27:42.513Z,100.00
2023-03-04T00:30:09.499Z,100.00
2023-03-04T00:32:36.145Z,100.00
2023-03-04T00:35:02.755Z,100.00
2023-03-04T00:37:29.441Z,100.00
2023-03-04T00:39:56.049Z,100.00
2023-03-04T00:42:22.679Z,100.00
2023-03-04T00:44:49.866Z,100.00
2023-03-04T00:47:16.462Z,100.00
2023-03-04T00:49:43.102Z,100.00
2023-03-04T00:52:10.441Z,100.00
2023-03-04T00:54:37.051Z,100.00
2023-03-04T00:57:03.739Z,100.00
2023-03-04T00:59:30.455Z,100.00
2023-03-04T01:01:57.051Z,100.00
2023-03-04T01:04:23.730Z,100.00
2023-03-04T01:06:50.403Z,100.00
2023-03-04T01:09:17.116Z,100.00
2023-03-04T01:11:43.757Z,100.00
2023-03-04T01:14:10.397Z,100.00
2023-03-04T01:16:37.415Z,100.00
2023-03-04T01:19:04.081Z,100.00
2023-03-04T01:21:30.790Z,100.00
2023-03-04T01:23:57.388Z,100.00
2023-03-04T01:26:24.048Z,100.00
2023-03-04T01:28:50.771Z,100.00
2023-03-04T01:31:17.423Z,100.00
2023-03-04T01:33:44.137Z,100.00
2023-03-04T01:36:10.941Z,100.00
2023-03-04T01:38:37.637Z,100.00
2023-03-04T01:41:04.327Z,100.00
2023-03-04T01:43:31.681Z,100.00
2023-03-04T01:45:59.052Z,100.00
2023-03-04T01:48:27.326Z,100.00
2023-03-04T01:50:54.068Z,100.00
2023-03-04T01:53:23.926Z,100.00
2023-03-04T01:55:52.313Z,100.00
2023-03-04T01:58:18.911Z,100.00
2023-03-04T02:00:45.579Z,100.00
2023-03-04T02:03:13.970Z,100.00
2023-03-04T02:05:43.183Z,100.00
2023-03-04T02:08:10.710Z,100.00
2023-03-04T02:10:37.525Z,100.00
2023-03-04T02:13:04.195Z,100.00
2023-03-04T02:15:30.849Z,100.00
2023-03-04T02:17:57.479Z,100.00
2023-03-04T02:20:33.081Z,100.00
2023-03-04T02:23:15.674Z,100.00
2023-03-04T02:26:01.125Z,100.00
2023-03-04T02:28:27.860Z,100.00
2023-03-04T02:30:54.510Z,100.00
2023-03-04T02:33:21.141Z,100.00
2023-03-04T02:35:48.140Z,100.00
2023-03-04T02:38:14.857Z,100.00
2023-03-04T02:40:43.360Z,100.00
2023-03-04T02:43:11.422Z,100.00
2023-03-04T02:45:41.106Z,100.00
2023-03-04T02:48:08.337Z,100.00
2023-03-04T02:50:37.146Z,100.00
2023-03-04T02:53:04.203Z,100.00
2023-03-04T02:55:30.888Z,100.00
2023-03-04T02:57:57.500Z,100.00
2023-03-04T03:00:24.171Z,100.00
2023-03-04T03:02:50.928Z,100.00
2023-03-04T03:05:17.945Z,100.00
2023-03-04T03:07:44.545Z,100.00
2023-03-04T03:10:11.580Z,100.00
2023-03-04T03:12:38.175Z,100.00
2023-03-04T03:15:04.995Z,100.00
2023-03-04T03:17:31.635Z,100.00
2023-03-04T03:19:58.346Z,100.00
2023-03-04T03:22:24.941Z,100.00
2023-03-04T03:24:51.563Z,100.00
2023-03-04T03:27:18.134Z,100.00
2023-03-04T03:29:44.769Z,100.00
2023-03-04T03:32:11.629Z,100.00
2023-03-04T03:34:38.247Z,100.00
2023-03-04T03:37:04.801Z,100.00
2023-03-04T03:39:31.452Z,100.00
2023-03-04T03:41:58.043Z,100.00
2023-03-04T03:44:24.613Z,100.00
2023-03-04T03:46:51.200Z,100.00
2023-03-04T03:49:17.805Z,100.00
2023-03-04T03:51:44.774Z,100.00
2023-03-04T03:54:11.442Z,100.00
2023-03-04T03:56:38.040Z,100.00
2023-03-04T03:59:04.630Z,100.00
2023-03-04T04:01:31.277Z,100.00
2023-03-04T04:03:57.876Z,100.00
2023-03-04T04:06:24.516Z,100.00
2023-03-04T04:08:51.217Z,100.00
2023-03-04T04:11:17.882Z,100.00
2023-03-04T04:13:44.488Z,100.00
2023-03-04T04:16:11.275Z,100.00
2023-03-04T04:18:38.062Z,100.00
2023-03-04T04:21:04.831Z,100.00
2023-03-04T04:23:31.703Z,100.00
2023-03-04T04:25:58.999Z,100.00
2023-03-04T04:28:25.577Z,100.00
2023-03-04T04:30:52.274Z,100.00
2023-03-04T04:33:19.085Z,100.00
2023-03-04T04:35:45.740Z,100.00
2023-03-04T04:38:12.491Z,100.00
2023-03-04T04:40:39.207Z,100.00
2023-03-04T04:43:05.780Z,100.00
2023-03-04T04:45:32.755Z,100.00
2023-03-04T04:47:59.421Z,100.00
2023-03-04T04:50:26.234Z,100.00
2023-03-04T04:52:52.974Z,100.00
2023-03-04T04:55:19.625Z,100.00
2023-03-04T04:57:46.220Z,100.00
2023-03-04T05:00:13.196Z,100.00
2023-03-04T05:02:39.816Z,100.00
2023-03-04T05:05:07.161Z,100.00
2023-03-04T05:07:34.396Z,100.00
2023-03-04T05:10:01.046Z,100.00
2023-03-04T05:12:27.722Z,100.00
2023-03-04T05:14:54.456Z,100.00
2023-03-04T05:17:21.153Z,100.00
2023-03-04T05:19:50.577Z,100.00
2023-03-04T05:22:17.203Z,100.00
2023-03-04T05:24:43.854Z,100.00
2023-03-04T05:27:10.516Z,100.00
2023-03-04T05:29:37.158Z,100.00
2023-03-04T05:32:03.830Z,100.00
2023-03-04T05:34:30.426Z,100.00
2023-03-04T05:36:57.045Z,100.00
2023-03-04T05:39:23.687Z,100.00
2023-03-04T05:41:50.292Z,100.00
2023-03-04T05:44:16.960Z,100.00
2023-03-04T05:46:43.634Z,100.00
2023-03-04T05:49:10.292Z,100.00
2023-03-04T05:51:36.948Z,100.00
2023-03-04T05:54:03.591Z,100.00
2023-03-04T05:56:30.704Z,100.00
2023-03-04T05:58:58.351Z,100.00
2023-03-04T06:01:24.999Z,100.00
2023-03-04T06:03:51.643Z,100.00
2023-03-04T06:06:18.318Z,100.00
2023-03-04T06:08:44.914Z,100.00
2023-03-04T06:11:12.681Z,100.00
2023-03-04T06:13:39.443Z,100.00
2023-03-04T06:16:06.417Z,100.00
2023-03-04T06:18:33.126Z,100.00
2023-03-04T06:21:00.970Z,100.00
2023-03-04T06:23:27.760Z,100.00
2023-03-04T06:25:54.982Z,100.00
2023-03-04T06:28:22.082Z,100.00
2023-03-04T06:30:49.837Z,100.00
2023-03-04T06:33:16.455Z,100.00
2023-03-04T06:35:43.129Z,100.00
2023-03-04T06:38:09.810Z,100.00
2023-03-04T06:40:36.645Z,100.00
2023-03-04T06:43:03.389Z,100.00
2023-03-04T06:45:30.071Z,100.00
2023-03-04T06:47:56.748Z,100.00
2023-03-04T06:50:23.380Z,100.00
2023-03-04T06:52:50.150Z,100.00
2023-03-04T06:55:16.717Z,100.00
2023-03-04T06:57:43.354Z,100.00
2023-03-04T07:00:10.296Z,100.00
2023-03-04T07:02:36.892Z,100.00
2023-03-04T07:05:03.733Z,100.00
2023-03-04T07:07:30.357Z,100.00
2023-03-04T07:09:57.097Z,100.00
2023-03-04T07:12:23.755Z,100.00
2023-03-04T07:14:50.397Z,100.00
2023-03-04T07:17:16.974Z,100.00
2023-03-04T07:19:44.818Z,100.00
2023-03-04T07:22:12.994Z,100.00
2023-03-04T07:24:39.599Z,100.00
2023-03-04T07:27:06.282Z,100.00
2023-03-04T07:29:32.867Z,100.00
2023-03-04T07:31:59.778Z,100.00
2023-03-04T07:34:26.706Z,100.00
2023-03-04T07:36:53.561Z,100.00
2023-03-04T07:39:20.157Z,100.00
2023-03-04T07:41:46.846Z,100.00
2023-03-04T07:44:13.757Z,100.00
2023-03-04T07:46:40.603Z,100.00
2023-03-04T07:49:07.272Z,100.00
2023-03-04T07:51:35.078Z,100.00
2023-03-04T07:54:01.794Z,100.00
2023-03-04T07:56:29.830Z,100.00
2023-03-04T07:58:56.528Z,90.85
2023-03-04T08:01:26.675Z,85.23
2023-03-04T08:03:53.538Z,78.09
2023-03-04T08:06:21.201Z,73.41
2023-03-04T08:08:47.971Z,73.32
2023-03-04T08:11:23.876Z,67.84
2023-03-04T08:13:50.679Z,63.67
2023-03-04T08:16:19.447Z,62.71
2023-03-04T08:18:48.478Z,58.55
2023-03-04T08:21:15.922Z,57.12
2023-03-04T08:23:43.373Z,57.21
2023-03-04T08:26:11.593Z,56.54
2023-03-04T08:28:38.250Z,55.98
2023-03-04T08:31:05.192Z,53.33
2023-03-04T08:33:32.553Z,50.61
2023-03-04T08:35:59.303Z,50.58
2023-03-04T08:38:26.152Z,47.53
2023-03-04T08:40:53.532Z,48.68
2023-03-04T08:43:20.203Z,47.15
2023-03-04T08:45:46.836Z,46.94
2023-03-04T08:48:13.820Z,45.11
2023-03-04T08:50:40.456Z,44.58
2023-03-04T08:53:07.059Z,43.26
2023-03-04T08:55:35.361Z,44.43
2023-03-04T08:58:02.011Z,43.71
2023-03-04T09:00:28.609Z,42.23
2023-03-04T09:02:56.071Z,41.27
2023-03-04T09:05:22.692Z,40.58
2023-03-04T09:07:49.331Z,39.26
2023-03-04T09:10:16.194Z,40.29
2023-03-04T09:12:42.821Z,42.38
2023-03-04T09:15:11.864Z,42.76
2023-03-04T09:17:39.139Z,46.44
2023-03-04T09:20:06.352Z,45.82
2023-03-04T09:22:33.020Z,47.94
2023-03-04T09:24:59.709Z,47.56
2023-03-04T09:27:26.460Z,49.27
2023-03-04T09:29:53.034Z,50.92
2023-03-04T09:32:19.813Z,56.57
2023-03-04T09:34:46.434Z,57.06
2023-03-04T09:37:13.020Z,56.17
2023-03-04T09:39:39.680Z,60.09
2023-03-04T09:42:07.985Z,61.14
2023-03-04T09:44:36.995Z,58.08
2023-03-04T09:47:05.782Z,60.85
2023-03-04T09:49:32.556Z,58.78
2023-03-04T09:52:02.419Z,58.83
2023-03-04T09:54:38.125Z,62.50
2023-03-04T09:57:20.076Z,61.62
2023-03-04T09:59:55.547Z,58.18
2023-03-04T10:02:45.469Z,60.89
2023-03-04T10:05:17.300Z,60.31
2023-03-04T10:07:46.642Z,58.06
2023-03-04T10:10:16.205Z,62.04
2023-03-04T10:12:47.068Z,60.45
2023-03-04T10:15:16.745Z,59.93
2023-03-04T10:17:45.934Z,57.88
2023-03-04T10:20:19.226Z,57.82
2023-03-04T10:22:47.423Z,61.57
2023-03-04T10:25:17.064Z,60.91
2023-03-04T10:27:48.746Z,61.84
2023-03-04T10:30:47.628Z,62.60
2023-03-04T10:33:15.594Z,60.88
2023-03-04T10:35:45.171Z,63.69
2023-03-04T10:38:13.378Z,66.13
2023-03-04T10:40:40.950Z,62.36
2023-03-04T10:43:14.283Z,58.67
2023-03-04T10:45:41.195Z,59.55
2023-03-04T10:48:17.678Z,60.31
2023-03-04T10:50:44.324Z,61.65
2023-03-04T10:53:21.897Z,60.63
2023-03-04T10:55:48.645Z,60.83
2023-03-04T10:58:17.663Z,63.12
2023-03-04T11:00:44.333Z,65.47
2023-03-04T11:03:23.322Z,62.15
2023-03-04T11:05:50.338Z,61.35
2023-03-04T11:08:18.976Z,60.96
2023-03-04T11:10:46.141Z,64.83
2023-03-04T11:13:12.728Z,61.34
2023-03-04T11:15:58.204Z,58.59
2023-03-04T11:18:41.488Z,57.96
2023-03-04T11:21:13.080Z,55.78
2023-03-04T11:23:50.243Z,56.32
2023-03-04T11:26:19.593Z,53.07
2023-03-04T11:29:05.088Z,51.83
2023-03-04T11:31:41.093Z,53.09
2023-03-04T11:34:13.287Z,51.59
2023-03-04T11:36:43.078Z,51.39
2023-03-04T11:39:25.209Z,51.14
2023-03-04T11:41:57.669Z,51.31
2023-03-04T11:44:25.605Z,48.16
2023-03-04T11:46:52.649Z,49.68
2023-03-04T11:49:46.187Z,49.98
2023-03-04T11:52:25.020Z,49.55
2023-03-04T11:55:14.003Z,50.63
2023-03-04T11:57:58.971Z,51.35
2023-03-04T12:00:31.388Z,50.19
2023-03-04T12:03:16.525Z,51.29
2023-03-04T12:05:52.289Z,54.70
2023-03-04T12:08:18.843Z,54.70
2023-03-04T12:11:06.815Z,52.41
2023-03-04T12:13:35.593Z,51.33
2023-03-04T12:16:20.557Z,57.70
2023-03-04T12:18:47.168Z,53.24
2023-03-04T12:21:27.738Z,47.70
2023-03-04T12:24:00.165Z,49.28
2023-03-04T12:26:35.650Z,49.34
2023-03-04T12:29:16.017Z,48.94
2023-03-04T12:32:00.894Z,51.27
2023-03-04T12:34:37.681Z,48.26
2023-03-04T12:37:30.843Z,50.14
2023-03-04T12:40:16.237Z,48.64
2023-03-04T12:42:52.010Z,49.49
2023-03-04T12:45:18.640Z,49.43
2023-03-04T12:48:00.769Z,49.14
2023-03-04T12:50:27.730Z,49.25
2023-03-04T12:53:17.054Z,49.63
2023-03-04T12:55:44.952Z,50.99
2023-03-04T12:58:30.304Z,51.13
2023-03-04T13:01:09.800Z,51.38
2023-03-04T13:03:39.415Z,51.57
2023-03-04T13:06:11.629Z,52.95
2023-03-04T13:08:50.501Z,50.98
2023-03-04T13:11:26.244Z,53.43
2023-03-04T13:14:01.923Z,51.60
2023-03-04T13:16:34.383Z,51.68
2023-03-04T13:19:01.190Z,52.67
2023-03-04T13:21:32.113Z,54.99
2023-03-04T13:24:01.928Z,53.29
2023-03-04T13:26:35.159Z,55.54
2023-03-04T13:29:13.967Z,53.99
2023-03-04T13:32:00.312Z,52.73
2023-03-04T13:34:42.546Z,53.62
2023-03-04T13:37:27.595Z,54.48
2023-03-04T13:40:14.397Z,52.03
2023-03-04T13:42:43.424Z,51.83
2023-03-04T13:45:28.647Z,49.09
2023-03-04T13:47:55.460Z,49.47
2023-03-04T13:50:23.515Z,50.02
2023-03-04T13:52:51.663Z,48.90
2023-03-04T13:55:30.718Z,50.33
2023-03-04T13:57:57.455Z,51.13
2023-03-04T14:00:24.782Z,49.87
2023-03-04T14:02:51.565Z,47.99
2023-03-04T14:05:18.415Z,48.20
2023-03-04T14:07:45.186Z,52.15
2023-03-04T14:10:11.889Z,50.69
2023-03-04T14:12:44.624Z,49.93
2023-03-04T14:15:11.260Z,51.21
2023-03-04T14:17:39.358Z,50.85
2023-03-04T14:20:21.382Z,51.16
2023-03-04T14:22:48.067Z,53.93
2023-03-04T14:25:15.038Z,54.65
2023-03-04T14:27:41.969Z,51.10
2023-03-04T14:30:28.813Z,52.67
2023-03-04T14:33:02.934Z,52.64
2023-03-04T14:35:31.069Z,52.31
2023-03-04T14:38:16.414Z,55.08
2023-03-04T14:40:45.680Z,54.93
2023-03-04T14:43:20.320Z,54.53
2023-03-04T14:45:49.849Z,52.80
2023-03-04T14:48:28.277Z,53.60
2023-03-04T14:50:56.307Z,53.74
2023-03-04T14:53:24.252Z,52.63
2023-03-04T14:56:00.605Z,55.06
2023-03-04T14:58:32.645Z,54.65
2023-03-04T15:01:15.661Z,54.87
2023-03-04T15:03:45.556Z,55.33
2023-03-04T15:06:19.779Z,55.36
2023-03-04T15:08:47.451Z,57.35
2023-03-04T15:11:34.497Z,55.11
2023-03-04T15:14:02.050Z,53.52
2023-03-04T15:16:33.774Z,53.33
2023-03-04T15:19:23.773Z,55.12
2023-03-04T15:21:50.659Z,53.43
2023-03-04T15:24:17.406Z,55.28
2023-03-04T15:26:46.076Z,55.97
2023-03-04T15:29:17.503Z,58.68
2023-03-04T15:31:45.427Z,57.93
2023-03-04T15:34:13.956Z,57.55
2023-03-04T15:36:44.916Z,57.59
2023-03-04T15:39:13.652Z,58.40
2023-03-04T15:41:40.356Z,57.89
2023-03-04T15:44:07.140Z,60.69
2023-03-04T15:46:33.908Z,62.28
2023-03-04T15:49:00.720Z,62.19
2023-03-04T15:51:28.373Z,62.04
2023-03-04T15:53:59.686Z,62.96
2023-03-04T15:56:30.895Z,62.98
2023-03-04T15:59:06.495Z,63.52
2023-03-04T16:01:33.651Z,63.54
2023-03-04T16:04:00.606Z,63.48
2023-03-04T16:06:29.682Z,63.63
2023-03-04T16:08:57.273Z,63.88
2023-03-04T16:11:26.246Z,63.71
2023-03-04T16:13:53.791Z,64.82
2023-03-04T16:16:23.037Z,66.17
2023-03-04T16:18:49.935Z,65.59
2023-03-04T16:21:18.791Z,67.06
2023-03-04T16:23:47.230Z,67.40
2023-03-04T16:26:25.122Z,68.27
2023-03-04T16:28:52.895Z,69.54
2023-03-04T16:31:20.715Z,71.47
2023-03-04T16:33:47.864Z,71.88
2023-03-04T16:36:16.576Z,72.89
2023-03-04T16:38:43.555Z,73.58
2023-03-04T16:41:16.451Z,74.16
2023-03-04T16:43:43.912Z,74.74
2023-03-04T16:46:12.192Z,75.57
2023-03-04T16:48:39.918Z,77.18
2023-03-04T16:51:12.775Z,78.96
2023-03-04T16:53:40.998Z,79.28
2023-03-04T16:56:12.410Z,80.54
2023-03-04T16:58:39.449Z,80.81
2023-03-04T17:01:06.788Z,82.18
2023-03-04T17:03:33.556Z,82.64
2023-03-04T17:06:00.267Z,83.07
2023-03-04T17:08:27.064Z,83.85
2023-03-04T17:10:53.757Z,84.29
2023-03-04T17:13:20.595Z,84.64
2023-03-04T17:15:47.540Z,85.41
2023-03-04T17:18:14.829Z,85.84
2023-03-04T17:20:44.701Z,85.96
2023-03-04T17:23:12.286Z,87.00
2023-03-04T17:25:39.580Z,87.02
2023-03-04T17:28:06.588Z,86.44
2023-03-04T17:30:33.730Z,87.19
2023-03-04T17:33:01.840Z,87.69
2023-03-04T17:35:29.421Z,88.35
2023-03-04T17:37:56.588Z,88.44
2023-03-04T17:40:23.996Z,89.15
2023-03-04T17:42:51.270Z,89.54
2023-03-04T17:45:20.785Z,90.15
2023-03-04T17:47:48.150Z,90.44
2023-03-04T17:50:15.418Z,91.01
2023-03-04T17:52:45.510Z,91.82
2023-03-04T17:55:12.783Z,92.22
2023-03-04T17:57:39.945Z,92.67
2023-03-04T18:00:07.528Z,92.95
2023-03-04T18:02:36.319Z,92.53
2023-03-04T18:05:06.926Z,93.68
2023-03-04T18:07:34.793Z,93.26
2023-03-04T18:10:02.339Z,94.22
2023-03-04T18:12:29.813Z,94.42
2023-03-04T18:14:56.897Z,94.77
2023-03-04T18:17:25.772Z,95.52
2023-03-04T18:19:53.107Z,95.80
2023-03-04T18:22:20.357Z,96.15
2023-03-04T18:24:49.294Z,96.30
2023-03-04T18:27:16.214Z,95.96
2023-03-04T18:29:43.560Z,96.80
2023-03-04T18:32:11.170Z,96.76
2023-03-04T18:34:41.061Z,96.75
2023-03-04T18:37:10.764Z,97.15
2023-03-04T18:39:37.871Z,97.16
2023-03-04T18:42:05.362Z,97.70
2023-03-04T18:44:33.130Z,98.81
2023-03-04T18:47:00.489Z,100.00
2023-03-04T18:49:27.899Z,100.00
2023-03-04T18:51:55.771Z,100.00
2023-03-04T18:54:24.016Z,100.00
2023-03-04T18:56:57.512Z,100.00
2023-03-04T18:59:32.030Z,100.00
2023-03-04T19:02:01.348Z,100.00
2023-03-04T19:04:29.266Z,100.00
2023-03-04T19:06:56.710Z,100.00
2023-03-04T19:09:24.301Z,100.00
2023-03-04T19:11:53.392Z,100.00
2023-03-04T19:14:20.484Z,100.00
2023-03-04T19:16:47.203Z,100.00
2023-03-04T19:19:15.773Z,100.00
2023-03-04T19:21:42.925Z,100.00
2023-03-04T19:24:11.113Z,100.00
2023-03-04T19:26:38.845Z,100.00
2023-03-04T19:29:07.640Z,100.00
2023-03-04T19:31:40.642Z,100.00
2023-03-04T19:34:08.502Z,100.00
2023-03-04T19:36:36.282Z,100.00
2023-03-04T19:39:13.415Z,100.00
2023-03-04T19:41:41.872Z,100.00
2023-03-04T19:44:09.000Z,100.00
2023-03-04T19:46:38.472Z,100.00
2023-03-04T19:49:06.245Z,100.00
2023-03-04T19:51:33.594Z,100.00
2023-03-04T19:54:00.530Z,100.00
2023-03-04T19:56:28.096Z,100.00
2023-03-04T19:58:56.134Z,100.00
2023-03-04T20:01:28.863Z,100.00
2023-03-04T20:04:01.011Z,100.00
2023-03-04T20:06:28.851Z,100.00
2023-03-04T20:08:57.913Z,100.00
2023-03-04T20:11:26.001Z,100.00
2023-03-04T20:13:54.740Z,100.00
2023-03-04T20:16:22.126Z,100.00
2023-03-04T20:18:50.304Z,100.00
2023-03-04T20:21:17.849Z,100.00
2023-03-04T20:23:45.381Z,100.00
2023-03-04T20:26:12.740Z,100.00
2023-03-04T20:28:40.255Z,100.00
2023-03-04T20:31:16.174Z,100.00
2023-03-04T20:33:44.798Z,100.00
2023-03-04T20:36:12.801Z,100.00
2023-03-04T20:38:40.584Z,100.00
2023-03-04T20:41:08.033Z,100.00
2023-03-04T20:43:35.394Z,100.00
2023-03-04T20:46:21.647Z,100.00
2023-03-04T20:48:48.643Z,100.00
2023-03-04T20:51:15.831Z,100.00
2023-03-04T20:53:43.233Z,100.00
2023-03-04T20:56:10.208Z,100.00
2023-03-04T20:58:37.105Z,100.00
2023-03-04T21:01:04.215Z,100.00
2023-03-04T21:03:31.941Z,100.00
2023-03-04T21:06:05.961Z,100.00
2023-03-04T21:08:33.238Z,100.00
2023-03-04T21:11:00.131Z,100.00
2023-03-04T21:13:30.953Z,100.00
2023-03-04T21:15:58.588Z,100.00
2023-03-04T21:18:28.026Z,100.00
2023-03-04T21:20:56.046Z,100.00
2023-03-04T21:23:23.544Z,100.00
2023-03-04T21:25:51.696Z,100.00
2023-03-04T21:28:20.879Z,100.00
2023-03-04T21:30:50.282Z,100.00
2023-03-04T21:33:19.131Z,100.00
2023-03-04T21:35:48.320Z,100.00
2023-03-04T21:38:15.025Z,100.00
2023-03-04T21:40:43.480Z,100.00
2023-03-04T21:43:10.433Z,99.40
2023-03-04T21:45:38.091Z,99.57
2023-03-04T21:48:05.117Z,99.78
2023-03-04T21:50:31.842Z,99.38
2023-03-04T21:52:58.985Z,99.60
2023-03-04T21:55:26.406Z,100.00
2023-03-04T21:57:53.377Z,100.00
2023-03-04T22:00:22.056Z,99.62
2023-03-04T22:02:49.617Z,99.34
2023-03-04T22:05:20.781Z,99.66
2023-03-04T22:07:47.347Z,100.00
2023-03-04T22:10:14.061Z,100.00
2023-03-04T22:12:40.791Z,100.00
2023-03-04T22:15:07.687Z,100.00
2023-03-04T22:17:34.346Z,100.00
2023-03-04T22:20:02.729Z,100.00
2023-03-04T22:22:30.448Z,100.00
2023-03-04T22:24:59.604Z,100.00
2023-03-04T22:27:26.291Z,100.00
2023-03-04T22:29:52.920Z,100.00
2023-03-04T22:32:19.869Z,100.00
2023-03-04T22:34:46.582Z,100.00
2023-03-04T22:37:13.210Z,100.00
2023-03-04T22:39:41.213Z,100.00
2023-03-04T22:42:11.532Z,100.00
2023-03-04T22:44:38.122Z,100.00
2023-03-04T22:47:04.768Z,100.00
2023-03-04T22:49:31.621Z,100.00
2023-03-04T22:51:58.294Z,100.00
2023-03-04T22:54:25.143Z,100.00
2023-03-04T22:56:52.025Z,100.00
2023-03-04T22:59:18.619Z,100.00
2023-03-04T23:01:45.185Z,100.00
2023-03-04T23:04:11.974Z,100.00
2023-03-04T23:06:38.640Z,100.00
2023-03-04T23:09:05.249Z,100.00
2023-03-04T23:11:35.479Z,100.00
2023-03-04T23:14:06.513Z,100.00
2023-03-04T23:16:37.335Z,100.00
2023-03-04T23:19:05.416Z,100.00
2023-03-04T23:21:35.327Z,100.00
2023-03-04T23:24:02.782Z,100.00
2023-03-04T23:26:32.429Z,100.00
2023-03-04T23:29:01.515Z,100.00
2023-03-04T23:31:28.761Z,100.00
2023-03-04T23:33:58.358Z,100.00
2023-03-04T23:36:26.479Z,100.00
2023-03-04T23:38:53.124Z,100.00
2023-03-04T23:41:21.272Z,100.00
2023-03-04T23:43:48.563Z,100.00
2023-03-04T23:46:15.527Z,100.00
2023-03-04T23:48:45.683Z,100.00
2023-03-04T23:51:16.029Z,100.00
2023-03-04T23:53:43.323Z,100.00
2023-03-04T23:56:20.718Z,100.00
2023-03-04T23:58:47.892Z,100.00
